West Davenport, New York
Current Conditions -  °F | °C
As of 11:55 PM on Friday 28 Nov 2014 (Local Time) from KNY0 Reporting Station
Overcast Overcast  
Wind Chill: 10°   Ceiling: 3100
Heat Index: 17°   Visibility: 10mi
Dew Point: 11°   Wind: 5mph
Humidity: 79%   Direction: 280°W
Pressure: 30.2"   Gusts: NA
Location:  42.45°N, 74.96°W
Report Text: KNY0 290455Z AUTO 28004KT 10SM BKN031 BKN037 OVC043 M08/M11 A3020 RMK AO2 T10841115
Loading
Personal Weather Stations






























Interactive Weather Map New forecast layout! Learn more

10-Day Weather Forecast

Advertisements
Track Severe Weather on mobile